sensor_id;sensor_type;location;lat;lon;timestamp;P1;durP1;ratioP1;P2;durP2;ratioP2
2201;SDS011;1107;48.654;9.250;2023-07-02T00:02:08;3.77;;;3.57;;
2201;SDS011;1107;48.654;9.250;2023-07-02T00:04:35;4.93;;;3.77;;
2201;SDS011;1107;48.654;9.250;2023-07-02T00:07:02;4.40;;;4.10;;
2201;SDS011;1107;48.654;9.250;2023-07-02T00:09:30;3.70;;;3.50;;
2201;SDS011;1107;48.654;9.250;2023-07-02T00:11:57;3.60;;;3.40;;
2201;SDS011;1107;48.654;9.250;2023-07-02T00:14:25;3.47;;;3.27;;
2201;SDS011;1107;48.654;9.250;2023-07-02T00:16:52;4.17;;;3.97;;
2201;SDS011;1107;48.654;9.250;2023-07-02T00:19:19;3.97;;;3.77;;
2201;SDS011;1107;48.654;9.250;2023-07-02T00:21:46;4.00;;;3.70;;
2201;SDS011;1107;48.654;9.250;2023-07-02T00:24:13;4.53;;;4.33;;
2201;SDS011;1107;48.654;9.250;2023-07-02T00:26:41;4.00;;;3.80;;
2201;SDS011;1107;48.654;9.250;2023-07-02T00:29:08;3.87;;;3.67;;
2201;SDS011;1107;48.654;9.250;2023-07-02T00:31:36;4.27;;;4.07;;
2201;SDS011;1107;48.654;9.250;2023-07-02T00:34:03;4.10;;;3.90;;
2201;SDS011;1107;48.654;9.250;2023-07-02T00:36:31;4.00;;;3.80;;
2201;SDS011;1107;48.654;9.250;2023-07-02T00:38:58;4.03;;;3.73;;
2201;SDS011;1107;48.654;9.250;2023-07-02T00:41:25;4.60;;;4.20;;
2201;SDS011;1107;48.654;9.250;2023-07-02T00:43:52;4.80;;;4.30;;
2201;SDS011;1107;48.654;9.250;2023-07-02T00:46:20;4.17;;;3.97;;
2201;SDS011;1107;48.654;9.250;2023-07-02T00:48:51;4.03;;;3.83;;
2201;SDS011;1107;48.654;9.250;2023-07-02T00:51:19;4.80;;;4.40;;
2201;SDS011;1107;48.654;9.250;2023-07-02T00:53:48;4.30;;;4.10;;
2201;SDS011;1107;48.654;9.250;2023-07-02T00:56:16;4.40;;;4.20;;
2201;SDS011;1107;48.654;9.250;2023-07-02T00:58:44;7.60;;;4.13;;
2201;SDS011;1107;48.654;9.250;2023-07-02T01:01:14;4.60;;;4.20;;
2201;SDS011;1107;48.654;9.250;2023-07-02T01:03:53;4.40;;;4.10;;
2201;SDS011;1107;48.654;9.250;2023-07-02T01:06:22;8.77;;;3.63;;
2201;SDS011;1107;48.654;9.250;2023-07-02T01:08:56;6.23;;;3.70;;
2201;SDS011;1107;48.654;9.250;2023-07-02T01:11:25;4.10;;;3.90;;
2201;SDS011;1107;48.654;9.250;2023-07-02T01:13:55;7.27;;;3.50;;
2201;SDS011;1107;48.654;9.250;2023-07-02T01:16:25;4.03;;;3.73;;
2201;SDS011;1107;48.654;9.250;2023-07-02T01:18:57;4.50;;;4.10;;
2201;SDS011;1107;48.654;9.250;2023-07-02T01:21:30;4.20;;;4.00;;
2201;SDS011;1107;48.654;9.250;2023-07-02T01:23:58;4.30;;;4.00;;
2201;SDS011;1107;48.654;9.250;2023-07-02T01:26:27;7.30;;;3.97;;
2201;SDS011;1107;48.654;9.250;2023-07-02T01:28:56;4.30;;;4.10;;
2201;SDS011;1107;48.654;9.250;2023-07-02T01:31:23;4.97;;;4.30;;
2201;SDS011;1107;48.654;9.250;2023-07-02T01:33:50;4.63;;;3.50;;
2201;SDS011;1107;48.654;9.250;2023-07-02T01:36:17;4.17;;;3.70;;
2201;SDS011;1107;48.654;9.250;2023-07-02T01:38:46;4.90;;;4.10;;
2201;SDS011;1107;48.654;9.250;2023-07-02T01:41:13;4.20;;;3.87;;
2201;SDS011;1107;48.654;9.250;2023-07-02T01:43:40;4.03;;;3.73;;
2201;SDS011;1107;48.654;9.250;2023-07-02T01:46:06;4.00;;;3.80;;
2201;SDS011;1107;48.654;9.250;2023-07-02T01:48:33;3.70;;;3.50;;
2201;SDS011;1107;48.654;9.250;2023-07-02T01:51:00;3.63;;;3.43;;
2201;SDS011;1107;48.654;9.250;2023-07-02T01:53:27;4.20;;;4.00;;
2201;SDS011;1107;48.654;9.250;2023-07-02T01:55:56;3.70;;;3.50;;
2201;SDS011;1107;48.654;9.250;2023-07-02T01:58:23;4.03;;;3.83;;
2201;SDS011;1107;48.654;9.250;2023-07-02T02:00:50;5.00;;;4.70;;
2201;SDS011;1107;48.654;9.250;2023-07-02T02:03:17;3.93;;;3.73;;
2201;SDS011;1107;48.654;9.250;2023-07-02T02:05:45;4.63;;;4.33;;
2201;SDS011;1107;48.654;9.250;2023-07-02T02:08:12;4.57;;;4.17;;
2201;SDS011;1107;48.654;9.250;2023-07-02T02:10:39;4.60;;;4.27;;
2201;SDS011;1107;48.654;9.250;2023-07-02T02:13:07;4.30;;;4.10;;
2201;SDS011;1107;48.654;9.250;2023-07-02T02:15:34;4.53;;;4.23;;
2201;SDS011;1107;48.654;9.250;2023-07-02T02:18:01;4.73;;;4.33;;
2201;SDS011;1107;48.654;9.250;2023-07-02T02:20:28;4.30;;;4.00;;
2201;SDS011;1107;48.654;9.250;2023-07-02T02:22:55;4.30;;;4.00;;
2201;SDS011;1107;48.654;9.250;2023-07-02T02:25:22;4.70;;;4.30;;
2201;SDS011;1107;48.654;9.250;2023-07-02T02:27:49;3.87;;;3.57;;
2201;SDS011;1107;48.654;9.250;2023-07-02T02:30:18;4.33;;;4.13;;
2201;SDS011;1107;48.654;9.250;2023-07-02T02:32:44;4.23;;;4.00;;
2201;SDS011;1107;48.654;9.250;2023-07-02T02:35:11;4.47;;;4.17;;
2201;SDS011;1107;48.654;9.250;2023-07-02T02:37:39;6.53;;;4.37;;
2201;SDS011;1107;48.654;9.250;2023-07-02T02:40:06;4.07;;;3.77;;
2201;SDS011;1107;48.654;9.250;2023-07-02T02:42:35;4.63;;;4.23;;
2201;SDS011;1107;48.654;9.250;2023-07-02T02:45:02;3.93;;;3.63;;
2201;SDS011;1107;48.654;9.250;2023-07-02T02:47:31;4.17;;;3.97;;
2201;SDS011;1107;48.654;9.250;2023-07-02T02:49:58;4.50;;;4.20;;
2201;SDS011;1107;48.654;9.250;2023-07-02T02:52:25;4.43;;;4.13;;
2201;SDS011;1107;48.654;9.250;2023-07-02T02:54:52;4.40;;;4.20;;
2201;SDS011;1107;48.654;9.250;2023-07-02T02:57:19;3.77;;;3.57;;
2201;SDS011;1107;48.654;9.250;2023-07-02T02:59:46;3.97;;;3.77;;
2201;SDS011;1107;48.654;9.250;2023-07-02T03:02:13;4.10;;;3.80;;
2201;SDS011;1107;48.654;9.250;2023-07-02T03:04:41;4.57;;;4.27;;
2201;SDS011;1107;48.654;9.250;2023-07-02T03:07:09;3.90;;;3.70;;
2201;SDS011;1107;48.654;9.250;2023-07-02T03:09:36;4.20;;;3.87;;
2201;SDS011;1107;48.654;9.250;2023-07-02T03:12:03;3.87;;;3.57;;
2201;SDS011;1107;48.654;9.250;2023-07-02T03:14:30;4.70;;;3.33;;
2201;SDS011;1107;48.654;9.250;2023-07-02T03:16:57;3.70;;;3.40;;
2201;SDS011;1107;48.654;9.250;2023-07-02T03:19:24;3.90;;;3.70;;
2201;SDS011;1107;48.654;9.250;2023-07-02T03:21:53;3.13;;;2.93;;
2201;SDS011;1107;48.654;9.250;2023-07-02T03:24:19;3.77;;;3.57;;
2201;SDS011;1107;48.654;9.250;2023-07-02T03:26:47;4.00;;;3.70;;
2201;SDS011;1107;48.654;9.250;2023-07-02T03:29:14;4.23;;;4.00;;
2201;SDS011;1107;48.654;9.250;2023-07-02T03:31:44;4.83;;;3.70;;
2201;SDS011;1107;48.654;9.250;2023-07-02T03:34:11;5.07;;;4.77;;
2201;SDS011;1107;48.654;9.250;2023-07-02T03:36:38;4.80;;;4.50;;
2201;SDS011;1107;48.654;9.250;2023-07-02T03:39:07;4.63;;;4.33;;
2201;SDS011;1107;48.654;9.250;2023-07-02T03:41:34;4.37;;;4.17;;
2201;SDS011;1107;48.654;9.250;2023-07-02T03:44:01;4.50;;;4.20;;
2201;SDS011;1107;48.654;9.250;2023-07-02T03:46:28;6.60;;;4.80;;
2201;SDS011;1107;48.654;9.250;2023-07-02T03:48:56;5.03;;;4.37;;
2201;SDS011;1107;48.654;9.250;2023-07-02T03:51:23;4.63;;;4.30;;
2201;SDS011;1107;48.654;9.250;2023-07-02T03:53:49;6.17;;;4.53;;
2201;SDS011;1107;48.654;9.250;2023-07-02T03:56:18;5.17;;;4.30;;
2201;SDS011;1107;48.654;9.250;2023-07-02T03:58:45;4.80;;;4.50;;
2201;SDS011;1107;48.654;9.250;2023-07-02T04:01:12;4.40;;;4.20;;
2201;SDS011;1107;48.654;9.250;2023-07-02T04:03:40;6.60;;;4.17;;
2201;SDS011;1107;48.654;9.250;2023-07-02T04:06:08;5.27;;;4.87;;
2201;SDS011;1107;48.654;9.250;2023-07-02T04:08:35;4.60;;;4.30;;
2201;SDS011;1107;48.654;9.250;2023-07-02T04:11:02;4.63;;;4.33;;
2201;SDS011;1107;48.654;9.250;2023-07-02T04:13:30;4.50;;;4.20;;
2201;SDS011;1107;48.654;9.250;2023-07-02T04:15:57;5.33;;;4.37;;
2201;SDS011;1107;48.654;9.250;2023-07-02T04:18:24;4.57;;;4.30;;
2201;SDS011;1107;48.654;9.250;2023-07-02T04:20:51;5.20;;;4.30;;
2201;SDS011;1107;48.654;9.250;2023-07-02T04:23:18;4.77;;;4.47;;
2201;SDS011;1107;48.654;9.250;2023-07-02T04:25:45;4.57;;;4.37;;
2201;SDS011;1107;48.654;9.250;2023-07-02T04:28:12;4.83;;;4.53;;
2201;SDS011;1107;48.654;9.250;2023-07-02T04:30:40;4.80;;;4.50;;
2201;SDS011;1107;48.654;9.250;2023-07-02T04:33:07;4.23;;;3.93;;
2201;SDS011;1107;48.654;9.250;2023-07-02T04:35:39;4.87;;;4.67;;
2201;SDS011;1107;48.654;9.250;2023-07-02T04:38:05;4.93;;;4.63;;
2201;SDS011;1107;48.654;9.250;2023-07-02T04:40:34;5.80;;;4.73;;
2201;SDS011;1107;48.654;9.250;2023-07-02T04:43:01;5.07;;;4.77;;
2201;SDS011;1107;48.654;9.250;2023-07-02T04:45:29;5.17;;;4.77;;
2201;SDS011;1107;48.654;9.250;2023-07-02T04:47:58;4.87;;;4.53;;
2201;SDS011;1107;48.654;9.250;2023-07-02T04:50:26;5.13;;;4.77;;
2201;SDS011;1107;48.654;9.250;2023-07-02T04:52:52;4.50;;;4.30;;
2201;SDS011;1107;48.654;9.250;2023-07-02T04:55:20;12.77;;;4.83;;
2201;SDS011;1107;48.654;9.250;2023-07-02T04:57:47;4.50;;;4.30;;
2201;SDS011;1107;48.654;9.250;2023-07-02T05:00:14;4.80;;;4.50;;
2201;SDS011;1107;48.654;9.250;2023-07-02T05:02:42;4.50;;;4.30;;
2201;SDS011;1107;48.654;9.250;2023-07-02T05:05:10;4.37;;;4.17;;
2201;SDS011;1107;48.654;9.250;2023-07-02T05:07:37;4.27;;;4.07;;
2201;SDS011;1107;48.654;9.250;2023-07-02T05:10:06;4.70;;;4.40;;
2201;SDS011;1107;48.654;9.250;2023-07-02T05:12:34;4.10;;;3.90;;
2201;SDS011;1107;48.654;9.250;2023-07-02T05:15:01;4.33;;;4.13;;
2201;SDS011;1107;48.654;9.250;2023-07-02T05:17:28;5.60;;;4.10;;
2201;SDS011;1107;48.654;9.250;2023-07-02T05:19:55;4.63;;;4.33;;
2201;SDS011;1107;48.654;9.250;2023-07-02T05:22:24;5.03;;;4.63;;
2201;SDS011;1107;48.654;9.250;2023-07-02T05:24:50;4.90;;;4.50;;
2201;SDS011;1107;48.654;9.250;2023-07-02T05:27:17;6.40;;;4.63;;
2201;SDS011;1107;48.654;9.250;2023-07-02T05:29:44;4.47;;;4.27;;
2201;SDS011;1107;48.654;9.250;2023-07-02T05:32:11;6.60;;;4.17;;
2201;SDS011;1107;48.654;9.250;2023-07-02T05:34:38;4.70;;;4.50;;
2201;SDS011;1107;48.654;9.250;2023-07-02T05:37:05;4.10;;;3.90;;
2201;SDS011;1107;48.654;9.250;2023-07-02T05:39:34;4.77;;;4.37;;
2201;SDS011;1107;48.654;9.250;2023-07-02T05:42:01;4.83;;;4.43;;
2201;SDS011;1107;48.654;9.250;2023-07-02T05:44:28;11.07;;;4.13;;
2201;SDS011;1107;48.654;9.250;2023-07-02T05:46:56;4.87;;;4.20;;
2201;SDS011;1107;48.654;9.250;2023-07-02T05:49:23;5.00;;;4.47;;
2201;SDS011;1107;48.654;9.250;2023-07-02T05:51:51;4.60;;;4.30;;
2201;SDS011;1107;48.654;9.250;2023-07-02T05:54:18;4.43;;;4.23;;
2201;SDS011;1107;48.654;9.250;2023-07-02T05:56:46;5.23;;;4.93;;
2201;SDS011;1107;48.654;9.250;2023-07-02T05:59:13;8.93;;;5.60;;
2201;SDS011;1107;48.654;9.250;2023-07-02T06:01:43;7.60;;;5.63;;
2201;SDS011;1107;48.654;9.250;2023-07-02T06:04:10;6.97;;;4.93;;
2201;SDS011;1107;48.654;9.250;2023-07-02T06:06:36;6.00;;;5.50;;
2201;SDS011;1107;48.654;9.250;2023-07-02T06:09:03;6.90;;;6.30;;
2201;SDS011;1107;48.654;9.250;2023-07-02T06:11:30;5.83;;;5.40;;
2201;SDS011;1107;48.654;9.250;2023-07-02T06:13:59;5.93;;;5.53;;
2201;SDS011;1107;48.654;9.250;2023-07-02T06:16:25;5.70;;;5.30;;
2201;SDS011;1107;48.654;9.250;2023-07-02T06:18:52;5.70;;;5.20;;
2201;SDS011;1107;48.654;9.250;2023-07-02T06:21:19;5.83;;;5.33;;
2201;SDS011;1107;48.654;9.250;2023-07-02T06:23:46;5.50;;;5.10;;
2201;SDS011;1107;48.654;9.250;2023-07-02T06:26:13;5.67;;;5.37;;
2201;SDS011;1107;48.654;9.250;2023-07-02T06:28:40;5.00;;;4.70;;
2201;SDS011;1107;48.654;9.250;2023-07-02T06:31:09;7.10;;;4.60;;
2201;SDS011;1107;48.654;9.250;2023-07-02T06:33:38;5.70;;;5.23;;
2201;SDS011;1107;48.654;9.250;2023-07-02T06:36:05;5.40;;;5.00;;
2201;SDS011;1107;48.654;9.250;2023-07-02T06:38:32;6.17;;;5.80;;
2201;SDS011;1107;48.654;9.250;2023-07-02T06:40:59;7.30;;;6.60;;
2201;SDS011;1107;48.654;9.250;2023-07-02T06:43:26;8.43;;;6.50;;
2201;SDS011;1107;48.654;9.250;2023-07-02T06:45:53;9.87;;;7.60;;
2201;SDS011;1107;48.654;9.250;2023-07-02T06:48:21;6.87;;;6.47;;
2201;SDS011;1107;48.654;9.250;2023-07-02T06:50:48;7.93;;;7.17;;
2201;SDS011;1107;48.654;9.250;2023-07-02T06:53:15;8.50;;;7.37;;
2201;SDS011;1107;48.654;9.250;2023-07-02T06:55:42;6.60;;;6.10;;
2201;SDS011;1107;48.654;9.250;2023-07-02T06:58:09;6.77;;;6.23;;
2201;SDS011;1107;48.654;9.250;2023-07-02T07:00:36;9.50;;;7.23;;
2201;SDS011;1107;48.654;9.250;2023-07-02T07:03:03;7.10;;;6.40;;
2201;SDS011;1107;48.654;9.250;2023-07-02T07:05:31;9.93;;;7.10;;
2201;SDS011;1107;48.654;9.250;2023-07-02T07:07:58;7.43;;;6.97;;
2201;SDS011;1107;48.654;9.250;2023-07-02T07:10:26;9.40;;;6.73;;
2201;SDS011;1107;48.654;9.250;2023-07-02T07:12:53;10.53;;;7.97;;
2201;SDS011;1107;48.654;9.250;2023-07-02T07:15:20;9.20;;;7.53;;
2201;SDS011;1107;48.654;9.250;2023-07-02T07:17:47;9.13;;;8.43;;
2201;SDS011;1107;48.654;9.250;2023-07-02T07:20:14;10.20;;;8.40;;
2201;SDS011;1107;48.654;9.250;2023-07-02T07:22:42;9.13;;;8.33;;
2201;SDS011;1107;48.654;9.250;2023-07-02T07:25:09;9.47;;;8.67;;
2201;SDS011;1107;48.654;9.250;2023-07-02T07:27:36;13.00;;;9.50;;
2201;SDS011;1107;48.654;9.250;2023-07-02T07:30:04;11.47;;;10.13;;
2201;SDS011;1107;48.654;9.250;2023-07-02T07:32:32;10.97;;;9.47;;
2201;SDS011;1107;48.654;9.250;2023-07-02T07:34:58;11.63;;;9.57;;
2201;SDS011;1107;48.654;9.250;2023-07-02T07:37:25;10.70;;;9.23;;
2201;SDS011;1107;48.654;9.250;2023-07-02T07:39:54;9.17;;;8.30;;
2201;SDS011;1107;48.654;9.250;2023-07-02T07:42:21;10.77;;;9.77;;
2201;SDS011;1107;48.654;9.250;2023-07-02T07:44:48;11.83;;;9.27;;
2201;SDS011;1107;48.654;9.250;2023-07-02T07:47:15;14.80;;;9.73;;
2201;SDS011;1107;48.654;9.250;2023-07-02T07:49:42;12.63;;;8.53;;
2201;SDS011;1107;48.654;9.250;2023-07-02T07:52:09;15.57;;;10.93;;
2201;SDS011;1107;48.654;9.250;2023-07-02T07:54:36;11.03;;;10.03;;
2201;SDS011;1107;48.654;9.250;2023-07-02T07:57:04;15.97;;;10.43;;
2201;SDS011;1107;48.654;9.250;2023-07-02T07:59:32;18.83;;;11.20;;
2201;SDS011;1107;48.654;9.250;2023-07-02T08:01:58;11.47;;;10.37;;
2201;SDS011;1107;48.654;9.250;2023-07-02T08:04:25;15.60;;;11.07;;
2201;SDS011;1107;48.654;9.250;2023-07-02T08:06:52;17.37;;;11.30;;
2201;SDS011;1107;48.654;9.250;2023-07-02T08:09:23;16.70;;;11.93;;
2201;SDS011;1107;48.654;9.250;2023-07-02T08:11:50;11.90;;;10.90;;
2201;SDS011;1107;48.654;9.250;2023-07-02T08:14:19;12.73;;;11.47;;
2201;SDS011;1107;48.654;9.250;2023-07-02T08:16:46;15.30;;;11.80;;
2201;SDS011;1107;48.654;9.250;2023-07-02T08:19:13;16.83;;;11.93;;
2201;SDS011;1107;48.654;9.250;2023-07-02T08:21:39;15.57;;;11.57;;
2201;SDS011;1107;48.654;9.250;2023-07-02T08:24:07;14.70;;;13.17;;
2201;SDS011;1107;48.654;9.250;2023-07-02T08:26:33;14.90;;;12.77;;
2201;SDS011;1107;48.654;9.250;2023-07-02T08:29:00;14.23;;;11.80;;
2201;SDS011;1107;48.654;9.250;2023-07-02T08:31:29;17.57;;;13.97;;
2201;SDS011;1107;48.654;9.250;2023-07-02T08:33:55;15.93;;;12.70;;
2201;SDS011;1107;48.654;9.250;2023-07-02T08:36:22;16.77;;;13.50;;
2201;SDS011;1107;48.654;9.250;2023-07-02T08:38:49;16.17;;;13.00;;
2201;SDS011;1107;48.654;9.250;2023-07-02T08:41:16;13.20;;;11.80;;
2201;SDS011;1107;48.654;9.250;2023-07-02T08:43:43;22.13;;;13.13;;
2201;SDS011;1107;48.654;9.250;2023-07-02T08:46:10;14.63;;;12.43;;
2201;SDS011;1107;48.654;9.250;2023-07-02T08:48:39;14.83;;;13.37;;
2201;SDS011;1107;48.654;9.250;2023-07-02T08:51:06;17.20;;;14.70;;
2201;SDS011;1107;48.654;9.250;2023-07-02T08:53:33;15.73;;;14.10;;
2201;SDS011;1107;48.654;9.250;2023-07-02T08:56:00;17.17;;;13.30;;
2201;SDS011;1107;48.654;9.250;2023-07-02T08:58:28;18.47;;;14.17;;
2201;SDS011;1107;48.654;9.250;2023-07-02T09:01:05;20.90;;;14.40;;
2201;SDS011;1107;48.654;9.250;2023-07-02T09:03:36;14.90;;;13.40;;
2201;SDS011;1107;48.654;9.250;2023-07-02T09:06:06;23.43;;;13.40;;
2201;SDS011;1107;48.654;9.250;2023-07-02T09:08:34;13.90;;;12.70;;
2201;SDS011;1107;48.654;9.250;2023-07-02T09:11:08;15.13;;;13.53;;
2201;SDS011;1107;48.654;9.250;2023-07-02T09:13:41;18.40;;;13.40;;
2201;SDS011;1107;48.654;9.250;2023-07-02T09:16:20;13.83;;;12.17;;
2201;SDS011;1107;48.654;9.250;2023-07-02T09:18:56;13.40;;;12.20;;
2201;SDS011;1107;48.654;9.250;2023-07-02T09:21:25;16.60;;;13.70;;
2201;SDS011;1107;48.654;9.250;2023-07-02T09:23:52;13.73;;;12.53;;
2201;SDS011;1107;48.654;9.250;2023-07-02T09:26:19;14.30;;;12.87;;
2201;SDS011;1107;48.654;9.250;2023-07-02T09:28:46;12.93;;;11.83;;
2201;SDS011;1107;48.654;9.250;2023-07-02T09:31:13;12.50;;;11.50;;
2201;SDS011;1107;48.654;9.250;2023-07-02T09:33:41;11.37;;;10.57;;
2201;SDS011;1107;48.654;9.250;2023-07-02T09:36:10;12.57;;;11.40;;
2201;SDS011;1107;48.654;9.250;2023-07-02T09:38:39;17.13;;;12.63;;
2201;SDS011;1107;48.654;9.250;2023-07-02T09:41:06;13.20;;;11.90;;
2201;SDS011;1107;48.654;9.250;2023-07-02T09:43:34;12.70;;;11.53;;
2201;SDS011;1107;48.654;9.250;2023-07-02T09:46:02;17.83;;;11.47;;
2201;SDS011;1107;48.654;9.250;2023-07-02T09:48:30;12.43;;;11.17;;
2201;SDS011;1107;48.654;9.250;2023-07-02T09:51:00;15.33;;;11.40;;
2201;SDS011;1107;48.654;9.250;2023-07-02T09:53:29;16.80;;;15.00;;
2201;SDS011;1107;48.654;9.250;2023-07-02T09:55:56;19.57;;;16.60;;
2201;SDS011;1107;48.654;9.250;2023-07-02T09:58:23;14.27;;;12.93;;
2201;SDS011;1107;48.654;9.250;2023-07-02T10:00:50;13.80;;;12.50;;
2201;SDS011;1107;48.654;9.250;2023-07-02T10:03:27;17.37;;;15.50;;
2201;SDS011;1107;48.654;9.250;2023-07-02T10:06:02;20.63;;;15.53;;
2201;SDS011;1107;48.654;9.250;2023-07-02T10:08:31;21.67;;;16.20;;
2201;SDS011;1107;48.654;9.250;2023-07-02T10:11:06;19.43;;;16.20;;
2201;SDS011;1107;48.654;9.250;2023-07-02T10:13:34;24.27;;;18.17;;
2201;SDS011;1107;48.654;9.250;2023-07-02T10:16:01;21.20;;;18.87;;
2201;SDS011;1107;48.654;9.250;2023-07-02T10:18:28;24.27;;;18.50;;
2201;SDS011;1107;48.654;9.250;2023-07-02T10:20:55;22.00;;;18.90;;
2201;SDS011;1107;48.654;9.250;2023-07-02T10:23:33;24.97;;;18.77;;
2201;SDS011;1107;48.654;9.250;2023-07-02T10:26:10;20.40;;;18.17;;
2201;SDS011;1107;48.654;9.250;2023-07-02T10:28:39;17.83;;;15.93;;
2201;SDS011;1107;48.654;9.250;2023-07-02T10:31:17;18.73;;;15.57;;
2201;SDS011;1107;48.654;9.250;2023-07-02T10:33:45;19.37;;;15.00;;
2201;SDS011;1107;48.654;9.250;2023-07-02T10:36:17;18.03;;;15.50;;
2201;SDS011;1107;48.654;9.250;2023-07-02T10:38:47;18.20;;;16.40;;
2201;SDS011;1107;48.654;9.250;2023-07-02T10:41:22;20.30;;;15.93;;
2201;SDS011;1107;48.654;9.250;2023-07-02T10:43:51;21.20;;;17.50;;
2201;SDS011;1107;48.654;9.250;2023-07-02T10:46:18;21.83;;;16.87;;
2201;SDS011;1107;48.654;9.250;2023-07-02T10:48:55;17.40;;;15.57;;
2201;SDS011;1107;48.654;9.250;2023-07-02T10:51:22;21.67;;;16.33;;
2201;SDS011;1107;48.654;9.250;2023-07-02T10:53:59;17.93;;;15.30;;
2201;SDS011;1107;48.654;9.250;2023-07-02T10:56:27;16.60;;;14.80;;
2201;SDS011;1107;48.654;9.250;2023-07-02T10:58:54;18.33;;;15.43;;
2201;SDS011;1107;48.654;9.250;2023-07-02T11:01:22;19.90;;;14.90;;
2201;SDS011;1107;48.654;9.250;2023-07-02T11:03:55;17.70;;;15.83;;
2201;SDS011;1107;48.654;9.250;2023-07-02T11:06:23;22.03;;;15.63;;
2201;SDS011;1107;48.654;9.250;2023-07-02T11:08:51;20.30;;;16.43;;
2201;SDS011;1107;48.654;9.250;2023-07-02T11:11:21;27.20;;;17.63;;
2201;SDS011;1107;48.654;9.250;2023-07-02T11:13:49;18.37;;;16.47;;
2201;SDS011;1107;48.654;9.250;2023-07-02T11:16:21;20.37;;;16.10;;
2201;SDS011;1107;48.654;9.250;2023-07-02T11:18:51;19.87;;;15.77;;
2201;SDS011;1107;48.654;9.250;2023-07-02T11:21:19;18.63;;;16.33;;
2201;SDS011;1107;48.654;9.250;2023-07-02T11:23:46;24.60;;;15.23;;
2201;SDS011;1107;48.654;9.250;2023-07-02T11:26:13;16.47;;;14.70;;
2201;SDS011;1107;48.654;9.250;2023-07-02T11:28:49;17.83;;;13.97;;
2201;SDS011;1107;48.654;9.250;2023-07-02T11:31:25;18.60;;;14.50;;
2201;SDS011;1107;48.654;9.250;2023-07-02T11:33:52;15.40;;;13.80;;
2201;SDS011;1107;48.654;9.250;2023-07-02T11:36:20;15.80;;;14.30;;
2201;SDS011;1107;48.654;9.250;2023-07-02T11:38:49;16.03;;;14.40;;
2201;SDS011;1107;48.654;9.250;2023-07-02T11:41:16;16.53;;;15.00;;
2201;SDS011;1107;48.654;9.250;2023-07-02T11:43:44;15.90;;;14.50;;
2201;SDS011;1107;48.654;9.250;2023-07-02T11:46:12;17.10;;;14.33;;
2201;SDS011;1107;48.654;9.250;2023-07-02T11:48:39;15.93;;;14.10;;
2201;SDS011;1107;48.654;9.250;2023-07-02T11:51:07;15.57;;;14.20;;
2201;SDS011;1107;48.654;9.250;2023-07-02T11:53:36;13.90;;;12.60;;
2201;SDS011;1107;48.654;9.250;2023-07-02T11:56:03;16.43;;;14.70;;
2201;SDS011;1107;48.654;9.250;2023-07-02T11:58:30;17.43;;;13.07;;
2201;SDS011;1107;48.654;9.250;2023-07-02T12:00:57;13.40;;;12.30;;
2201;SDS011;1107;48.654;9.250;2023-07-02T12:03:25;14.70;;;13.30;;
2201;SDS011;1107;48.654;9.250;2023-07-02T12:05:52;15.20;;;13.47;;
2201;SDS011;1107;48.654;9.250;2023-07-02T12:08:19;15.47;;;13.87;;
2201;SDS011;1107;48.654;9.250;2023-07-02T12:10:46;15.37;;;13.43;;
2201;SDS011;1107;48.654;9.250;2023-07-02T12:13:13;17.73;;;14.00;;
2201;SDS011;1107;48.654;9.250;2023-07-02T12:15:39;18.27;;;13.57;;
2201;SDS011;1107;48.654;9.250;2023-07-02T12:18:06;14.37;;;12.73;;
2201;SDS011;1107;48.654;9.250;2023-07-02T12:20:35;15.07;;;13.60;;
2201;SDS011;1107;48.654;9.250;2023-07-02T12:23:03;14.47;;;12.93;;
2201;SDS011;1107;48.654;9.250;2023-07-02T12:25:30;14.33;;;13.13;;
2201;SDS011;1107;48.654;9.250;2023-07-02T12:27:57;18.33;;;14.30;;
2201;SDS011;1107;48.654;9.250;2023-07-02T12:30:24;15.23;;;13.73;;
2201;SDS011;1107;48.654;9.250;2023-07-02T12:32:51;14.33;;;13.00;;
2201;SDS011;1107;48.654;9.250;2023-07-02T12:35:18;14.97;;;12.93;;
2201;SDS011;1107;48.654;9.250;2023-07-02T12:37:47;13.57;;;12.50;;
2201;SDS011;1107;48.654;9.250;2023-07-02T12:40:14;14.90;;;13.63;;
2201;SDS011;1107;48.654;9.250;2023-07-02T12:42:42;15.40;;;13.80;;
2201;SDS011;1107;48.654;9.250;2023-07-02T12:45:09;14.13;;;12.33;;
2201;SDS011;1107;48.654;9.250;2023-07-02T12:47:37;15.00;;;13.00;;
2201;SDS011;1107;48.654;9.250;2023-07-02T12:50:04;13.27;;;12.13;;
2201;SDS011;1107;48.654;9.250;2023-07-02T12:52:32;15.67;;;14.07;;
2201;SDS011;1107;48.654;9.250;2023-07-02T12:55:01;12.97;;;11.90;;
2201;SDS011;1107;48.654;9.250;2023-07-02T12:57:28;15.83;;;13.37;;
2201;SDS011;1107;48.654;9.250;2023-07-02T12:59:55;15.33;;;13.67;;
2201;SDS011;1107;48.654;9.250;2023-07-02T13:02:23;13.53;;;12.30;;
2201;SDS011;1107;48.654;9.250;2023-07-02T13:04:50;14.10;;;12.90;;
2201;SDS011;1107;48.654;9.250;2023-07-02T13:07:17;17.70;;;11.90;;
2201;SDS011;1107;48.654;9.250;2023-07-02T13:09:44;12.50;;;11.40;;
2201;SDS011;1107;48.654;9.250;2023-07-02T13:12:13;14.37;;;13.03;;
2201;SDS011;1107;48.654;9.250;2023-07-02T13:14:40;14.23;;;12.93;;
2201;SDS011;1107;48.654;9.250;2023-07-02T13:17:07;13.40;;;12.30;;
2201;SDS011;1107;48.654;9.250;2023-07-02T13:19:33;13.00;;;11.77;;
2201;SDS011;1107;48.654;9.250;2023-07-02T13:22:01;13.67;;;12.27;;
2201;SDS011;1107;48.654;9.250;2023-07-02T13:24:32;13.73;;;12.33;;
2201;SDS011;1107;48.654;9.250;2023-07-02T13:27:01;14.70;;;12.63;;
2201;SDS011;1107;48.654;9.250;2023-07-02T13:29:33;14.97;;;13.57;;
2201;SDS011;1107;48.654;9.250;2023-07-02T13:32:00;13.73;;;12.40;;
2201;SDS011;1107;48.654;9.250;2023-07-02T13:34:28;14.43;;;13.03;;
2201;SDS011;1107;48.654;9.250;2023-07-02T13:36:55;16.43;;;13.10;;
2201;SDS011;1107;48.654;9.250;2023-07-02T13:39:22;14.33;;;13.03;;
2201;SDS011;1107;48.654;9.250;2023-07-02T13:41:49;12.97;;;11.90;;
2201;SDS011;1107;48.654;9.250;2023-07-02T13:44:16;13.77;;;12.40;;
2201;SDS011;1107;48.654;9.250;2023-07-02T13:46:45;14.47;;;13.10;;
2201;SDS011;1107;48.654;9.250;2023-07-02T13:49:13;15.60;;;12.90;;
2201;SDS011;1107;48.654;9.250;2023-07-02T13:51:40;13.63;;;12.43;;
2201;SDS011;1107;48.654;9.250;2023-07-02T13:54:07;13.93;;;12.63;;
2201;SDS011;1107;48.654;9.250;2023-07-02T13:56:39;14.60;;;13.17;;
2201;SDS011;1107;48.654;9.250;2023-07-02T13:59:07;13.23;;;12.20;;
2201;SDS011;1107;48.654;9.250;2023-07-02T14:01:34;14.00;;;12.67;;
2201;SDS011;1107;48.654;9.250;2023-07-02T14:04:02;13.97;;;12.57;;
2201;SDS011;1107;48.654;9.250;2023-07-02T14:06:29;28.53;;;25.93;;
2201;SDS011;1107;48.654;9.250;2023-07-02T14:08:57;94.10;;;58.03;;
2201;SDS011;1107;48.654;9.250;2023-07-02T14:11:24;19.87;;;17.90;;
2201;SDS011;1107;48.654;9.250;2023-07-02T14:13:53;34.10;;;24.60;;
2201;SDS011;1107;48.654;9.250;2023-07-02T14:16:21;15.57;;;13.33;;
2201;SDS011;1107;48.654;9.250;2023-07-02T14:18:49;17.37;;;14.07;;
2201;SDS011;1107;48.654;9.250;2023-07-02T14:21:16;14.97;;;13.37;;
2201;SDS011;1107;48.654;9.250;2023-07-02T14:23:43;15.63;;;14.13;;
2201;SDS011;1107;48.654;9.250;2023-07-02T14:26:10;20.57;;;13.87;;
2201;SDS011;1107;48.654;9.250;2023-07-02T14:28:37;16.63;;;14.70;;
2201;SDS011;1107;48.654;9.250;2023-07-02T14:31:05;15.47;;;13.87;;
2201;SDS011;1107;48.654;9.250;2023-07-02T14:33:34;16.47;;;14.87;;
2201;SDS011;1107;48.654;9.250;2023-07-02T14:36:02;21.50;;;15.00;;
2201;SDS011;1107;48.654;9.250;2023-07-02T14:38:30;16.33;;;14.70;;
2201;SDS011;1107;48.654;9.250;2023-07-02T14:40:58;18.97;;;14.60;;
2201;SDS011;1107;48.654;9.250;2023-07-02T14:43:27;16.07;;;14.47;;
2201;SDS011;1107;48.654;9.250;2023-07-02T14:45:56;17.77;;;15.60;;
2201;SDS011;1107;48.654;9.250;2023-07-02T14:48:25;16.60;;;14.47;;
2201;SDS011;1107;48.654;9.250;2023-07-02T14:50:54;15.70;;;14.13;;
2201;SDS011;1107;48.654;9.250;2023-07-02T14:53:23;15.93;;;14.00;;
2201;SDS011;1107;48.654;9.250;2023-07-02T14:55:53;16.83;;;15.20;;
2201;SDS011;1107;48.654;9.250;2023-07-02T14:58:20;16.00;;;14.60;;
2201;SDS011;1107;48.654;9.250;2023-07-02T15:00:48;16.27;;;14.67;;
2201;SDS011;1107;48.654;9.250;2023-07-02T15:03:16;16.53;;;15.03;;
2201;SDS011;1107;48.654;9.250;2023-07-02T15:05:45;15.47;;;14.00;;